createdAt,value
2018-12-29T00:00:39.731Z,28.60
2018-12-29T00:01:39.719Z,27.10
2018-12-29T00:02:39.733Z,28.20
2018-12-29T00:03:39.698Z,29.00
2018-12-29T00:04:39.697Z,29.20
2018-12-29T00:05:39.674Z,28.70
2018-12-29T00:06:39.665Z,26.30
2018-12-29T00:07:39.655Z,28.40
2018-12-29T00:08:39.639Z,28.30
2018-12-29T00:09:39.641Z,28.10
2018-12-29T00:10:39.621Z,26.50
2018-12-29T00:11:39.615Z,28.00
2018-12-29T00:12:39.625Z,27.70
2018-12-29T00:13:39.591Z,27.50
2018-12-29T00:14:39.577Z,27.20
2018-12-29T00:15:39.577Z,26.10
2018-12-29T00:16:39.562Z,26.40
2018-12-29T00:17:39.554Z,26.20
2018-12-29T00:18:39.541Z,26.90
2018-12-29T00:19:39.535Z,25.90
2018-12-29T00:20:39.521Z,27.50
2018-12-29T00:21:39.515Z,26.60
2018-12-29T00:22:39.493Z,26.50
2018-12-29T00:23:39.489Z,27.50
2018-12-29T00:24:39.477Z,26.50
2018-12-29T00:25:39.475Z,26.20
2018-12-29T00:26:39.457Z,26.40
2018-12-29T00:27:39.441Z,27.60
2018-12-29T00:28:39.433Z,27.10
2018-12-29T00:29:39.425Z,26.70
2018-12-29T00:30:39.416Z,27.80
2018-12-29T00:31:39.403Z,27.70
2018-12-29T00:32:39.414Z,27.40
2018-12-29T00:33:39.391Z,27.20
2018-12-29T00:34:39.393Z,27.00
2018-12-29T00:35:39.401Z,26.60
2018-12-29T00:36:39.355Z,26.80
2018-12-29T00:37:39.343Z,26.70
2018-12-29T00:38:39.323Z,26.40
2018-12-29T00:39:39.324Z,27.00
2018-12-29T00:40:39.311Z,27.20
2018-12-29T00:41:39.297Z,28.90
2018-12-29T00:42:39.287Z,27.80
2018-12-29T00:43:39.273Z,28.30
2018-12-29T00:44:39.266Z,27.20
2018-12-29T00:45:39.260Z,27.90
2018-12-29T00:46:39.249Z,28.10
2018-12-29T00:47:39.240Z,27.30
2018-12-29T00:48:39.239Z,27.30
2018-12-29T00:49:39.221Z,28.70
2018-12-29T00:50:39.206Z,28.10
2018-12-29T00:51:39.195Z,29.00
2018-12-29T00:52:39.181Z,27.60
2018-12-29T00:53:39.171Z,28.90
2018-12-29T00:54:39.159Z,28.60
2018-12-29T00:55:39.151Z,28.20
2018-12-29T00:56:39.202Z,28.50
2018-12-29T00:57:39.131Z,28.70
2018-12-29T00:58:39.118Z,29.30
2018-12-29T00:59:39.105Z,29.20
2018-12-29T01:00:39.098Z,29.20
2018-12-29T01:01:39.084Z,28.70
2018-12-29T01:02:39.078Z,29.10
2018-12-29T01:03:39.067Z,29.50
2018-12-29T01:04:39.056Z,29.70
2018-12-29T01:05:39.039Z,30.00
2018-12-29T01:06:39.034Z,29.80
2018-12-29T01:07:39.023Z,29.90
2018-12-29T01:08:39.012Z,28.70
2018-12-29T01:09:39.006Z,30.30
2018-12-29T01:10:39.020Z,30.20
2018-12-29T01:11:38.997Z,30.40
2018-12-29T01:12:38.969Z,30.00
2018-12-29T01:13:38.961Z,31.30
2018-12-29T01:14:38.956Z,30.10
2018-12-29T01:15:38.941Z,30.90
2018-12-29T01:16:38.930Z,31.10
2018-12-29T01:17:38.920Z,31.50
2018-12-29T01:18:38.911Z,31.50
2018-12-29T01:19:38.897Z,31.60
2018-12-29T01:20:38.897Z,31.80
2018-12-29T01:21:38.883Z,31.10
2018-12-29T01:22:38.864Z,31.80
2018-12-29T01:23:38.852Z,31.90
2018-12-29T01:24:38.858Z,31.50
2018-12-29T01:25:38.833Z,32.20
2018-12-29T01:26:38.828Z,32.60
2018-12-29T01:27:38.817Z,32.30
2018-12-29T01:28:38.803Z,32.50
2018-12-29T01:29:38.794Z,32.70
2018-12-29T01:30:38.782Z,32.80
2018-12-29T01:31:38.775Z,33.30
2018-12-29T01:32:38.762Z,32.80
2018-12-29T01:33:38.753Z,32.90
2018-12-29T01:34:38.763Z,33.60
2018-12-29T01:35:38.729Z,33.90
2018-12-29T01:36:38.723Z,35.00
2018-12-29T01:37:38.714Z,34.20
2018-12-29T01:38:38.696Z,33.80
2018-12-29T01:39:38.690Z,34.30
2018-12-29T01:40:38.688Z,34.30
2018-12-29T01:41:38.664Z,34.50
2018-12-29T01:42:38.660Z,34.50
2018-12-29T01:43:38.648Z,33.30
2018-12-29T01:44:38.632Z,35.80
2018-12-29T01:45:38.634Z,35.70
2018-12-29T01:46:38.623Z,36.30
2018-12-29T01:47:38.620Z,35.00
2018-12-29T01:48:38.593Z,35.00
2018-12-29T01:49:38.582Z,36.00
2018-12-29T01:50:38.578Z,35.60
2018-12-29T01:51:38.560Z,36.10
2018-12-29T01:52:38.557Z,35.30
2018-12-29T01:53:38.537Z,36.00
2018-12-29T01:54:38.533Z,35.30
2018-12-29T01:55:38.516Z,35.50
2018-12-29T01:56:38.508Z,35.40
2018-12-29T01:57:38.522Z,35.70
2018-12-29T01:58:38.486Z,37.00
2018-12-29T01:59:38.481Z,36.80
2018-12-29T02:00:38.460Z,35.40
2018-12-29T02:01:38.458Z,36.50
2018-12-29T02:02:38.444Z,34.60
2018-12-29T02:03:38.452Z,36.50
2018-12-29T02:04:38.425Z,36.30
2018-12-29T02:05:38.412Z,35.60
2018-12-29T02:06:38.408Z,35.30
2018-12-29T02:07:38.388Z,36.20
2018-12-29T02:08:38.382Z,36.10
2018-12-29T02:09:38.371Z,36.20
2018-12-29T02:10:38.374Z,35.90
2018-12-29T02:11:38.349Z,35.70
2018-12-29T02:12:38.338Z,36.20
2018-12-29T02:13:38.332Z,35.70
2018-12-29T02:14:38.316Z,36.00
2018-12-29T02:15:38.311Z,36.30
2018-12-29T02:16:38.299Z,36.90
2018-12-29T02:17:38.288Z,35.80
2018-12-29T02:18:38.278Z,35.30
2018-12-29T02:19:38.264Z,35.20
2018-12-29T02:20:38.259Z,33.40
2018-12-29T02:21:38.260Z,34.90
2018-12-29T02:22:38.236Z,35.40
2018-12-29T02:23:38.232Z,35.00
2018-12-29T02:24:38.218Z,35.30
2018-12-29T02:25:38.199Z,35.10
2018-12-29T02:26:38.195Z,36.00
2018-12-29T02:27:38.182Z,35.90
2018-12-29T02:28:38.172Z,34.20
2018-12-29T02:29:38.159Z,35.80
2018-12-29T02:30:38.150Z,35.70
2018-12-29T02:31:38.141Z,35.60
2018-12-29T02:32:38.132Z,34.50
2018-12-29T02:33:38.134Z,33.50
2018-12-29T02:34:38.110Z,35.30
2018-12-29T02:35:38.095Z,35.20
2018-12-29T02:36:38.092Z,34.10
2018-12-29T02:37:38.076Z,36.00
2018-12-29T02:38:38.065Z,35.20
2018-12-29T02:39:38.053Z,34.60
2018-12-29T02:40:38.042Z,34.60
2018-12-29T02:41:38.031Z,35.00
2018-12-29T02:42:38.025Z,33.60
2018-12-29T02:43:38.009Z,34.90
2018-12-29T02:44:38.004Z,34.70
2018-12-29T02:45:37.995Z,34.80
2018-12-29T02:46:37.992Z,34.40
2018-12-29T02:47:37.967Z,34.50
2018-12-29T02:48:37.962Z,34.20
2018-12-29T02:49:37.949Z,34.20
2018-12-29T02:50:37.942Z,34.40
2018-12-29T02:51:37.926Z,34.30
2018-12-29T02:52:37.912Z,35.00
2018-12-29T02:53:37.908Z,35.10
2018-12-29T02:54:37.896Z,35.10
2018-12-29T02:55:37.883Z,33.50
2018-12-29T02:56:37.895Z,34.70
2018-12-29T02:57:37.869Z,33.30
2018-12-29T02:58:37.855Z,34.40
2018-12-29T02:59:37.840Z,34.40
2018-12-29T03:00:37.831Z,34.40
2018-12-29T03:01:37.831Z,35.00
2018-12-29T03:02:37.821Z,34.50
2018-12-29T03:03:37.803Z,34.10
2018-12-29T03:04:37.790Z,33.10
2018-12-29T03:05:37.778Z,34.30
2018-12-29T03:06:37.767Z,33.30
2018-12-29T03:07:37.780Z,33.70
2018-12-29T03:08:37.759Z,34.30
2018-12-29T03:09:37.745Z,34.70
2018-12-29T03:10:37.725Z,33.40
2018-12-29T03:11:37.719Z,34.40
2018-12-29T03:12:37.701Z,34.30
2018-12-29T03:13:37.697Z,33.60
2018-12-29T03:14:37.691Z,32.10
2018-12-29T03:15:41.704Z,33.10
2018-12-29T03:16:37.662Z,32.70
2018-12-29T03:17:37.656Z,33.70
2018-12-29T03:18:37.646Z,33.60
2018-12-29T03:19:37.663Z,32.80
2018-12-29T03:20:37.634Z,32.60
2018-12-29T03:21:37.613Z,32.40
2018-12-29T03:22:37.604Z,32.80
2018-12-29T03:23:37.658Z,33.50
2018-12-29T03:24:37.584Z,32.20
2018-12-29T03:25:37.572Z,31.60
2018-12-29T03:26:37.563Z,32.90
2018-12-29T03:27:37.549Z,32.80
2018-12-29T03:28:37.532Z,32.80
2018-12-29T03:29:37.526Z,33.40
2018-12-29T03:30:37.520Z,33.30
2018-12-29T03:31:37.524Z,33.70
2018-12-29T03:32:37.527Z,32.50
2018-12-29T03:33:37.493Z,32.10
2018-12-29T03:34:37.480Z,33.80
2018-12-29T03:35:37.462Z,32.70
2018-12-29T03:36:37.459Z,33.10
2018-12-29T03:37:37.449Z,32.80
2018-12-29T03:38:37.434Z,32.50
2018-12-29T03:39:37.425Z,31.90
2018-12-29T03:40:37.417Z,32.00
2018-12-29T03:41:37.404Z,32.00
2018-12-29T03:42:37.425Z,31.60
2018-12-29T03:43:37.393Z,33.00
2018-12-29T03:44:37.379Z,31.70
2018-12-29T03:45:37.362Z,33.30
2018-12-29T03:46:37.356Z,32.00
2018-12-29T03:47:37.344Z,32.60
2018-12-29T03:48:37.334Z,32.00
2018-12-29T03:49:37.320Z,32.20
2018-12-29T03:50:37.313Z,32.20
2018-12-29T03:51:37.301Z,32.00
2018-12-29T03:52:37.374Z,32.40
2018-12-29T03:53:37.277Z,32.00
2018-12-29T03:54:37.265Z,32.80
2018-12-29T03:55:37.264Z,32.80
2018-12-29T03:56:37.255Z,32.70
2018-12-29T03:57:37.236Z,31.90
2018-12-29T03:58:37.222Z,32.20
2018-12-29T03:59:37.215Z,33.30
2018-12-29T04:00:37.204Z,32.00
2018-12-29T04:01:37.208Z,33.20
2018-12-29T04:02:37.183Z,34.20
2018-12-29T04:03:37.177Z,31.50
2018-12-29T04:04:37.166Z,32.50
2018-12-29T04:05:37.151Z,32.90
2018-12-29T04:06:37.139Z,33.10
2018-12-29T04:07:37.130Z,32.70
2018-12-29T04:08:37.127Z,33.10
2018-12-29T04:09:37.113Z,33.10
2018-12-29T04:10:37.102Z,32.90
2018-12-29T04:11:37.088Z,33.10
2018-12-29T04:12:37.075Z,32.50
2018-12-29T04:13:37.068Z,32.90
2018-12-29T04:14:37.070Z,32.40
2018-12-29T04:15:37.048Z,34.10
2018-12-29T04:16:37.046Z,33.20
2018-12-29T04:17:37.028Z,33.80
2018-12-29T04:18:37.061Z,32.80
2018-12-29T04:19:37.002Z,33.60
2018-12-29T04:20:37.023Z,34.50
2018-12-29T04:21:36.987Z,33.80
2018-12-29T04:22:36.981Z,35.00
2018-12-29T04:23:36.964Z,33.00
2018-12-29T04:24:36.956Z,33.20
2018-12-29T04:25:36.947Z,33.50
2018-12-29T04:26:36.933Z,34.50
2018-12-29T04:27:36.918Z,33.40
2018-12-29T04:28:36.908Z,34.80
2018-12-29T04:29:36.897Z,34.70
2018-12-29T04:30:36.888Z,34.60
2018-12-29T04:31:36.892Z,34.00
2018-12-29T04:32:36.866Z,34.60
2018-12-29T04:33:36.858Z,35.20
2018-12-29T04:34:36.848Z,34.50
2018-12-29T04:35:36.837Z,34.50
2018-12-29T04:36:36.830Z,35.40
2018-12-29T04:37:36.890Z,34.90
2018-12-29T04:38:36.802Z,35.50
2018-12-29T04:39:36.794Z,34.80
2018-12-29T04:40:36.785Z,34.60
2018-12-29T04:41:36.792Z,35.30
2018-12-29T04:42:36.762Z,33.60
2018-12-29T04:43:36.756Z,35.20
2018-12-29T04:44:36.782Z,34.60
2018-12-29T04:45:36.731Z,34.40
2018-12-29T04:46:36.723Z,35.30
2018-12-29T04:47:36.708Z,34.70
2018-12-29T04:48:36.696Z,35.10
2018-12-29T04:49:36.686Z,35.00
2018-12-29T04:50:36.694Z,35.60
2018-12-29T04:51:36.666Z,35.40
2018-12-29T04:52:36.657Z,35.60
2018-12-29T04:53:36.648Z,35.90
2018-12-29T04:54:36.652Z,35.40
2018-12-29T04:55:36.629Z,35.80
2018-12-29T04:56:36.616Z,35.00
2018-12-29T04:57:36.604Z,35.70
2018-12-29T04:58:36.592Z,35.20
2018-12-29T04:59:36.583Z,34.80
2018-12-29T05:00:36.566Z,35.30
2018-12-29T05:01:36.561Z,34.80
2018-12-29T05:02:36.550Z,34.80
2018-12-29T05:03:36.536Z,34.40
2018-12-29T05:04:36.540Z,35.50
2018-12-29T05:05:36.522Z,34.90
2018-12-29T05:06:36.506Z,35.20
2018-12-29T05:07:36.560Z,35.00
2018-12-29T05:08:36.480Z,35.70
2018-12-29T05:09:36.470Z,34.50
2018-12-29T05:10:36.466Z,34.30
2018-12-29T05:11:36.448Z,34.10
2018-12-29T05:12:36.441Z,35.70
2018-12-29T05:13:36.430Z,34.70
2018-12-29T05:14:36.420Z,35.70
2018-12-29T05:15:36.407Z,35.10
2018-12-29T05:16:36.397Z,33.60
2018-12-29T05:17:36.402Z,34.30
2018-12-29T05:18:36.380Z,34.00
2018-12-29T05:19:36.442Z,34.50
2018-12-29T05:20:36.356Z,34.80
2018-12-29T05:21:36.342Z,34.40
2018-12-29T05:22:36.341Z,35.10
2018-12-29T05:23:36.324Z,35.00
2018-12-29T05:24:36.310Z,34.60
2018-12-29T05:25:36.309Z,34.80
2018-12-29T05:26:36.312Z,35.90
2018-12-29T05:27:36.307Z,34.90
2018-12-29T05:28:36.276Z,35.40
2018-12-29T05:29:36.255Z,36.00
2018-12-29T05:30:36.275Z,34.80
2018-12-29T05:31:36.234Z,35.20
2018-12-29T05:32:36.238Z,35.60
2018-12-29T05:33:36.216Z,35.40
2018-12-29T05:34:36.208Z,35.70
2018-12-29T05:35:36.201Z,35.40
2018-12-29T05:36:36.184Z,34.60
2018-12-29T05:37:36.174Z,35.20
2018-12-29T05:38:36.172Z,36.70
2018-12-29T05:39:36.168Z,35.00
2018-12-29T05:40:36.146Z,34.80
2018-12-29T05:41:36.130Z,35.70
2018-12-29T05:42:36.177Z,36.30
2018-12-29T05:43:36.109Z,35.30
2018-12-29T05:44:36.096Z,33.80
2018-12-29T05:45:36.086Z,35.40
2018-12-29T05:46:36.081Z,35.20
2018-12-29T05:47:36.066Z,35.20
2018-12-29T05:48:36.063Z,36.00
2018-12-29T05:49:36.049Z,34.80
2018-12-29T05:50:36.055Z,35.80
2018-12-29T05:51:36.028Z,35.30
2018-12-29T05:52:36.013Z,35.00
2018-12-29T05:53:36.013Z,34.90
2018-12-29T05:54:35.993Z,35.00
2018-12-29T05:55:35.986Z,35.50
2018-12-29T05:56:35.977Z,35.20
2018-12-29T05:57:35.964Z,34.30
2018-12-29T05:58:35.949Z,33.50
2018-12-29T05:59:35.939Z,34.50
2018-12-29T06:00:35.935Z,35.40
2018-12-29T06:01:35.918Z,33.50
2018-12-29T06:02:35.909Z,33.30
2018-12-29T06:03:35.915Z,32.40
2018-12-29T06:04:35.883Z,32.60
2018-12-29T06:05:35.878Z,34.30
2018-12-29T06:06:35.869Z,33.50
2018-12-29T06:07:35.855Z,32.90
2018-12-29T06:08:35.839Z,34.10
2018-12-29T06:09:35.837Z,33.30
2018-12-29T06:10:35.816Z,34.00
2018-12-29T06:11:35.810Z,33.10
2018-12-29T06:12:35.797Z,34.00
2018-12-29T06:13:35.783Z,33.30
2018-12-29T06:14:35.776Z,33.60
2018-12-29T06:15:35.767Z,32.50
2018-12-29T06:16:35.777Z,33.30
2018-12-29T06:17:35.738Z,33.60
2018-12-29T06:18:35.735Z,33.60
2018-12-29T06:19:35.726Z,34.20
2018-12-29T06:20:35.706Z,33.80
2018-12-29T06:21:35.700Z,35.40
2018-12-29T06:22:35.688Z,34.70
2018-12-29T06:23:35.693Z,33.70
2018-12-29T06:24:35.668Z,34.50
2018-12-29T06:25:35.657Z,34.90
2018-12-29T06:26:35.678Z,35.20
2018-12-29T06:27:35.648Z,35.10
2018-12-29T06:28:35.628Z,35.10
2018-12-29T06:29:35.612Z,35.00
2018-12-29T06:30:35.617Z,35.00
2018-12-29T06:31:35.596Z,33.70
2018-12-29T06:32:35.580Z,36.80
2018-12-29T06:33:35.575Z,34.10
2018-12-29T06:34:35.564Z,34.40
2018-12-29T06:35:35.559Z,35.30
2018-12-29T06:36:35.541Z,36.00
2018-12-29T06:37:35.526Z,34.10
2018-12-29T06:38:35.519Z,33.80
2018-12-29T06:39:35.531Z,34.40
2018-12-29T06:40:35.496Z,34.40
2018-12-29T06:41:35.488Z,34.80
2018-12-29T06:42:35.474Z,34.50
2018-12-29T06:43:35.464Z,34.90
2018-12-29T06:44:35.454Z,34.70
2018-12-29T06:45:35.443Z,35.20
2018-12-29T06:46:35.439Z,34.60
2018-12-29T06:47:35.423Z,35.40
2018-12-29T06:48:35.407Z,34.10
2018-12-29T06:49:35.398Z,34.10
2018-12-29T06:50:35.385Z,35.20
2018-12-29T06:51:35.376Z,33.80
2018-12-29T06:52:35.367Z,33.80
2018-12-29T06:53:35.357Z,34.70
2018-12-29T06:54:35.343Z,34.90
2018-12-29T06:55:35.333Z,34.60
2018-12-29T06:56:35.322Z,34.30
2018-12-29T06:57:35.311Z,34.30
2018-12-29T06:58:35.299Z,33.90
2018-12-29T06:59:35.288Z,34.30
2018-12-29T07:00:35.279Z,34.10
2018-12-29T07:01:35.275Z,34.00
2018-12-29T07:02:35.275Z,35.30
2018-12-29T07:03:35.276Z,35.00
2018-12-29T07:04:35.239Z,34.30
2018-12-29T07:05:35.303Z,34.50
2018-12-29T07:06:35.211Z,35.90
2018-12-29T07:07:35.202Z,34.20
2018-12-29T07:08:35.198Z,35.70
2018-12-29T07:09:35.176Z,35.00
2018-12-29T07:10:35.177Z,35.80
2018-12-29T07:11:35.163Z,35.30
2018-12-29T07:12:35.151Z,35.50
2018-12-29T07:13:35.141Z,34.90
2018-12-29T07:14:35.125Z,33.40
2018-12-29T07:15:35.137Z,35.20
2018-12-29T07:16:42.026Z,34.90
2018-12-29T07:17:36.091Z,34.10
2018-12-29T07:18:35.090Z,35.60
2018-12-29T07:19:35.080Z,33.40
2018-12-29T07:20:35.082Z,34.70
2018-12-29T07:21:35.051Z,34.80
2018-12-29T07:22:35.042Z,34.00
2018-12-29T07:23:35.030Z,34.70
2018-12-29T07:24:35.020Z,34.60
2018-12-29T07:25:35.029Z,35.00
2018-12-29T07:26:35.005Z,35.70
2018-12-29T07:27:34.991Z,34.80
2018-12-29T07:28:34.987Z,34.50
2018-12-29T07:29:38.361Z,33.20
2018-12-29T07:30:34.957Z,33.90
2018-12-29T07:31:34.952Z,34.40
2018-12-29T07:32:34.938Z,33.90
2018-12-29T07:33:34.930Z,34.00
2018-12-29T07:34:34.924Z,34.30
2018-12-29T07:35:34.901Z,33.90
2018-12-29T07:36:34.891Z,33.40
2018-12-29T07:37:34.877Z,33.30
2018-12-29T07:38:34.878Z,33.60
2018-12-29T07:39:34.855Z,33.30
2018-12-29T07:40:34.844Z,34.30
2018-12-29T07:41:34.842Z,32.60
2018-12-29T07:42:34.821Z,33.70
2018-12-29T07:43:34.812Z,33.80
2018-12-29T07:44:34.805Z,33.30
2018-12-29T07:45:34.794Z,32.90
2018-12-29T07:46:34.791Z,32.80
2018-12-29T07:47:34.779Z,32.90
2018-12-29T07:48:34.786Z,32.80
2018-12-29T07:49:34.751Z,31.40
2018-12-29T07:50:34.737Z,31.40
2018-12-29T07:51:34.740Z,32.00
2018-12-29T07:52:34.717Z,32.90
2018-12-29T07:53:34.709Z,31.60
2018-12-29T07:54:34.693Z,32.00
2018-12-29T07:55:34.690Z,32.20
2018-12-29T07:56:34.670Z,30.90
2018-12-29T07:57:34.670Z,31.30
2018-12-29T07:58:34.652Z,31.70
2018-12-29T07:59:34.640Z,30.70
2018-12-29T08:00:34.628Z,30.70
2018-12-29T08:01:34.634Z,31.20
2018-12-29T08:02:34.615Z,31.70
2018-12-29T08:03:34.606Z,31.00
2018-12-29T08:04:34.590Z,31.80
2018-12-29T08:05:34.585Z,30.60
2018-12-29T08:06:34.567Z,30.40
2018-12-29T08:07:34.557Z,31.60
2018-12-29T08:08:34.547Z,30.00
2018-12-29T08:09:34.538Z,30.60
2018-12-29T08:10:34.523Z,30.10
2018-12-29T08:11:34.508Z,32.30
2018-12-29T08:12:34.495Z,31.30
2018-12-29T08:13:34.485Z,31.00
2018-12-29T08:14:34.491Z,31.60
2018-12-29T08:15:34.471Z,30.90
2018-12-29T08:16:34.463Z,31.70
2018-12-29T08:17:34.445Z,31.60
2018-12-29T08:18:34.432Z,30.90
2018-12-29T08:19:34.424Z,31.20
2018-12-29T08:20:34.413Z,31.50
2018-12-29T08:21:34.401Z,31.70
2018-12-29T08:22:34.392Z,31.40
2018-12-29T08:23:34.382Z,31.70
2018-12-29T08:24:34.370Z,30.80
2018-12-29T08:25:34.358Z,31.10
2018-12-29T08:26:34.346Z,30.60
2018-12-29T08:27:34.337Z,30.00
2018-12-29T08:28:34.334Z,31.40
2018-12-29T08:29:34.316Z,32.30
2018-12-29T08:30:34.310Z,32.10
2018-12-29T08:31:34.297Z,32.10
2018-12-29T08:32:34.288Z,31.90
2018-12-29T08:33:34.276Z,31.10
2018-12-29T08:34:34.264Z,30.80
2018-12-29T08:35:34.256Z,32.20
2018-12-29T08:36:34.240Z,31.30
2018-12-29T08:37:34.232Z,31.30
2018-12-29T08:38:34.220Z,29.80
2018-12-29T08:39:34.211Z,31.40
2018-12-29T08:40:34.199Z,31.70
2018-12-29T08:41:34.202Z,29.90
2018-12-29T08:42:34.182Z,31.50
2018-12-29T08:43:34.176Z,30.90
2018-12-29T08:44:34.165Z,30.90
2018-12-29T08:45:34.145Z,32.00
2018-12-29T08:46:34.134Z,32.00
2018-12-29T08:47:34.161Z,32.70
2018-12-29T08:48:34.118Z,30.90
2018-12-29T08:49:34.101Z,31.80
2018-12-29T08:50:34.094Z,32.10
2018-12-29T08:51:34.092Z,31.70
2018-12-29T08:52:34.080Z,31.20
2018-12-29T08:53:34.057Z,31.50
2018-12-29T08:54:34.050Z,32.50
2018-12-29T08:55:34.057Z,32.30
2018-12-29T08:56:34.031Z,31.70
2018-12-29T08:57:34.016Z,32.80
2018-12-29T08:58:34.006Z,32.70
2018-12-29T08:59:33.996Z,32.00
2018-12-29T09:00:33.998Z,32.90
2018-12-29T09:01:34.002Z,32.90
2018-12-29T09:02:33.968Z,32.80
2018-12-29T09:03:33.958Z,32.00
2018-12-29T09:04:33.944Z,32.30
2018-12-29T09:05:33.944Z,32.70
2018-12-29T09:06:33.930Z,33.40
2018-12-29T09:07:33.914Z,32.70
2018-12-29T09:08:33.908Z,32.30
2018-12-29T09:09:33.897Z,32.20
2018-12-29T09:10:33.880Z,32.40
2018-12-29T09:11:33.867Z,33.20
2018-12-29T09:12:33.860Z,32.90
2018-12-29T09:13:33.864Z,33.00
2018-12-29T09:14:33.841Z,32.60
2018-12-29T09:15:33.829Z,32.90
2018-12-29T09:16:33.820Z,32.10
2018-12-29T09:17:33.804Z,32.70
2018-12-29T09:18:33.790Z,32.30
2018-12-29T09:19:33.791Z,32.50
2018-12-29T09:20:33.780Z,31.70
2018-12-29T09:21:33.759Z,33.80
2018-12-29T09:22:33.770Z,32.60
2018-12-29T09:23:33.760Z,31.50
2018-12-29T09:24:33.725Z,33.50
2018-12-29T09:25:33.716Z,30.30
2018-12-29T09:26:33.706Z,31.50
2018-12-29T09:27:33.703Z,31.80
2018-12-29T09:28:33.688Z,31.70
2018-12-29T09:29:33.678Z,31.50
2018-12-29T09:30:34.476Z,30.20
2018-12-29T09:31:33.655Z,30.30
2018-12-29T09:32:33.643Z,29.40
2018-12-29T09:33:33.639Z,31.20
2018-12-29T09:34:33.629Z,30.20
2018-12-29T09:35:33.613Z,31.00
2018-12-29T09:36:33.625Z,31.30
2018-12-29T09:37:33.596Z,29.80
2018-12-29T09:38:33.578Z,29.80
2018-12-29T09:39:33.569Z,29.00
2018-12-29T09:40:33.555Z,28.00
2018-12-29T09:41:33.551Z,28.90
2018-12-29T09:42:33.547Z,29.50
2018-12-29T09:43:33.535Z,28.70
2018-12-29T09:44:33.516Z,29.50
2018-12-29T09:45:33.512Z,29.20
2018-12-29T09:46:33.519Z,28.40
2018-12-29T09:47:33.482Z,29.10
2018-12-29T09:48:33.480Z,30.00
2018-12-29T09:49:33.461Z,30.20
2018-12-29T09:50:33.448Z,29.80
2018-12-29T09:51:33.451Z,29.50
2018-12-29T09:52:33.436Z,30.50
2018-12-29T09:53:33.418Z,31.10
2018-12-29T09:54:33.410Z,30.70
2018-12-29T09:55:33.408Z,30.60
2018-12-29T09:56:33.406Z,31.10
2018-12-29T09:57:33.390Z,31.00
2018-12-29T09:58:33.378Z,31.50
2018-12-29T09:59:33.383Z,31.10
2018-12-29T10:00:33.359Z,29.60
2018-12-29T10:01:33.338Z,30.90
2018-12-29T10:02:33.328Z,31.30
2018-12-29T10:03:33.318Z,31.90
2018-12-29T10:04:33.311Z,31.70
2018-12-29T10:05:33.294Z,31.30
2018-12-29T10:06:33.281Z,31.20
2018-12-29T10:07:33.278Z,30.40
2018-12-29T10:08:33.266Z,30.80
2018-12-29T10:09:33.278Z,29.60
2018-12-29T10:10:33.246Z,29.80
2018-12-29T10:11:33.230Z,27.90
2018-12-29T10:12:33.238Z,28.70
2018-12-29T10:13:33.224Z,29.00
2018-12-29T10:14:33.200Z,28.70
2018-12-29T10:15:33.194Z,27.50
2018-12-29T10:16:33.175Z,27.40
2018-12-29T10:17:33.168Z,27.00
2018-12-29T10:18:33.156Z,27.50
2018-12-29T10:19:33.166Z,27.80
2018-12-29T10:20:33.142Z,28.10
2018-12-29T10:21:33.127Z,27.50
2018-12-29T10:22:33.126Z,27.40
2018-12-29T10:23:33.107Z,27.30
2018-12-29T10:24:33.096Z,27.90
2018-12-29T10:25:33.090Z,28.40
2018-12-29T10:26:33.074Z,27.40
2018-12-29T10:27:33.067Z,28.00
2018-12-29T10:28:33.052Z,27.30
2018-12-29T10:29:33.069Z,27.10
2018-12-29T10:30:33.029Z,27.90
2018-12-29T10:31:33.022Z,27.80
2018-12-29T10:32:33.048Z,28.50
2018-12-29T10:33:33.000Z,27.70
2018-12-29T10:34:32.984Z,28.70
2018-12-29T10:35:32.978Z,28.40
2018-12-29T10:36:32.972Z,28.80
2018-12-29T10:37:32.975Z,27.90
2018-12-29T10:38:32.948Z,28.20
2018-12-29T10:39:32.936Z,28.30
2018-12-29T10:40:32.927Z,28.70
2018-12-29T10:41:32.921Z,28.70
2018-12-29T10:42:32.911Z,28.90
2018-12-29T10:43:32.913Z,29.20
2018-12-29T10:44:32.882Z,29.20
2018-12-29T10:45:32.882Z,27.30
2018-12-29T10:46:32.860Z,28.40
2018-12-29T10:47:34.698Z,29.30
2018-12-29T10:48:32.846Z,28.50
2018-12-29T10:49:32.846Z,28.50
2018-12-29T10:50:32.821Z,29.10
2018-12-29T10:51:32.878Z,28.70
2018-12-29T10:52:32.800Z,28.30
2018-12-29T10:53:32.793Z,27.80
2018-12-29T10:54:32.776Z,28.30
2018-12-29T10:55:32.768Z,28.30
2018-12-29T10:56:32.760Z,28.40
2018-12-29T10:57:32.741Z,27.10
2018-12-29T10:58:32.742Z,26.80
2018-12-29T10:59:32.727Z,28.30
2018-12-29T11:00:35.214Z,27.60
2018-12-29T11:01:32.714Z,24.90
2018-12-29T11:02:32.698Z,27.10
2018-12-29T11:03:32.766Z,26.10
2018-12-29T11:04:32.682Z,26.60
2018-12-29T11:05:32.664Z,27.40
2018-12-29T11:06:32.650Z,26.80
2018-12-29T11:07:32.640Z,27.70
2018-12-29T11:08:33.010Z,27.30
2018-12-29T11:09:32.613Z,26.10
2018-12-29T11:10:32.630Z,27.30
2018-12-29T11:11:32.601Z,26.70
2018-12-29T11:12:32.591Z,27.40
2018-12-29T11:13:32.581Z,27.20
2018-12-29T11:14:32.568Z,27.30
2018-12-29T11:15:32.556Z,26.40
2018-12-29T11:16:32.546Z,27.50
2018-12-29T11:17:32.545Z,27.30
2018-12-29T11:18:32.524Z,28.00
2018-12-29T11:19:32.514Z,27.50
2018-12-29T11:20:32.502Z,27.70
2018-12-29T11:21:32.510Z,27.10
2018-12-29T11:22:32.488Z,27.40
2018-12-29T11:23:32.484Z,28.00
2018-12-29T11:24:32.460Z,28.50
2018-12-29T11:25:32.448Z,27.90
2018-12-29T11:26:32.439Z,28.40
2018-12-29T11:27:32.435Z,28.60
2018-12-29T11:28:32.424Z,28.80
2018-12-29T11:29:32.414Z,30.30
2018-12-29T11:30:32.396Z,28.80
2018-12-29T11:31:32.397Z,29.20
2018-12-29T11:32:32.379Z,29.40
2018-12-29T11:33:32.367Z,30.00
2018-12-29T11:34:32.367Z,29.90
2018-12-29T11:35:32.341Z,30.40
2018-12-29T11:36:32.336Z,28.70
2018-12-29T11:37:32.326Z,29.70
2018-12-29T11:38:32.314Z,29.90
2018-12-29T11:39:32.306Z,30.50
2018-12-29T11:40:32.297Z,29.80
2018-12-29T11:41:32.283Z,30.80
2018-12-29T11:42:32.270Z,31.00
2018-12-29T11:43:32.260Z,29.50
2018-12-29T11:44:32.281Z,30.90
2018-12-29T11:45:32.245Z,30.10
2018-12-29T11:46:32.234Z,30.90
2018-12-29T11:47:32.223Z,30.90
2018-12-29T11:48:32.212Z,30.40
2018-12-29T11:49:32.198Z,30.40
2018-12-29T11:50:32.195Z,30.90
2018-12-29T11:51:32.175Z,31.30
2018-12-29T11:52:32.164Z,31.60
2018-12-29T11:53:32.160Z,29.90
2018-12-29T11:54:32.159Z,30.50
2018-12-29T11:55:32.131Z,31.20
2018-12-29T11:56:32.123Z,31.20
2018-12-29T11:57:32.113Z,30.40
2018-12-29T11:58:32.113Z,31.10
2018-12-29T11:59:32.094Z,29.60
2018-12-29T12:00:32.085Z,30.40
2018-12-29T12:01:32.071Z,31.40
2018-12-29T12:02:32.060Z,32.20
2018-12-29T12:03:32.053Z,30.90
2018-12-29T12:04:32.038Z,31.50
2018-12-29T12:05:32.030Z,31.60
2018-12-29T12:06:32.019Z,31.40
2018-12-29T12:07:32.020Z,31.40
2018-12-29T12:08:31.996Z,29.80
2018-12-29T12:09:31.986Z,30.50
2018-12-29T12:10:31.981Z,31.70
2018-12-29T12:11:31.970Z,30.90
2018-12-29T12:12:31.960Z,30.90
2018-12-29T12:13:31.943Z,30.20
2018-12-29T12:14:31.944Z,30.60
2018-12-29T12:15:31.931Z,30.90
2018-12-29T12:16:31.912Z,30.80
2018-12-29T12:17:31.914Z,31.40
2018-12-29T12:18:31.896Z,30.10
2018-12-29T12:19:31.885Z,30.30
2018-12-29T12:20:31.878Z,30.50
2018-12-29T12:21:31.870Z,30.30
2018-12-29T12:22:31.855Z,29.30
2018-12-29T12:23:31.842Z,29.30
2018-12-29T12:24:31.832Z,30.90
2018-12-29T12:25:31.820Z,28.80
2018-12-29T12:26:31.810Z,28.60
2018-12-29T12:27:31.800Z,28.10
2018-12-29T12:28:31.796Z,27.20
2018-12-29T12:29:31.777Z,27.20
2018-12-29T12:30:31.779Z,27.70
2018-12-29T12:31:31.755Z,27.90
2018-12-29T12:32:31.750Z,28.10
2018-12-29T12:33:31.742Z,27.90
2018-12-29T12:34:31.724Z,27.90
2018-12-29T12:35:31.715Z,27.80
2018-12-29T12:36:31.716Z,28.00
2018-12-29T12:37:31.702Z,27.60
2018-12-29T12:38:31.681Z,26.70
2018-12-29T12:39:31.676Z,28.80
2018-12-29T12:40:31.665Z,27.40
2018-12-29T12:41:31.660Z,27.40
2018-12-29T12:42:31.644Z,26.60
2018-12-29T12:43:31.655Z,24.50
2018-12-29T12:44:31.625Z,26.20
2018-12-29T12:45:31.611Z,25.30
2018-12-29T12:46:31.602Z,25.80
2018-12-29T12:47:31.596Z,26.30
2018-12-29T12:48:31.583Z,26.20
2018-12-29T12:49:31.570Z,27.20
2018-12-29T12:50:31.558Z,27.00
2018-12-29T12:51:31.544Z,26.60
2018-12-29T12:52:31.546Z,27.40